Time;durP1;ratioP1;P1;durP2;ratioP2;P2;SDS_P1;SDS_P2;PMS_P1;PMS_P2;Temp;Humidity;BMP_temperature;BMP_pressure;BME280_temperature;BME280_humidity;BME280_pressure;Samples;Min_cycle;Max_cycle;Signal;HPM_P1;HPM_P2
2022/11/12 00:00:02;;;;;;;8.02;3.65;;;;;;;;;;5043975;28;20132;-76
2022/11/12 00:02:28;;;;;;;7.22;3.88;;;;;;;;;;5052719;28;20044;-73
2022/11/12 00:04:55;;;;;;;5.72;3.60;;;;;;;;;;5052775;28;20052;-73
2022/11/12 00:07:21;;;;;;;8.23;3.58;;;;;;;;;;5052006;28;20453;-73
2022/11/12 00:09:48;;;;;;;7.32;3.90;;;;;;;;;;5052085;28;20051;-78
2022/11/12 00:12:14;;;;;;;13.00;4.15;;;;;;;;;;5036248;28;20084;-73
2022/11/12 00:14:40;;;;;;;7.68;3.40;;;;;;;;;;5042484;28;20049;-73
2022/11/12 00:17:07;;;;;;;6.93;3.38;;;;;;;;;;5051267;28;20053;-73
2022/11/12 00:19:33;;;;;;;7.53;3.90;;;;;;;;;;5050458;28;20389;-73
2022/11/12 00:21:59;;;;;;;6.10;3.60;;;;;;;;;;5052482;28;20105;-73
2022/11/12 00:24:26;;;;;;;10.38;4.47;;;;;;;;;;5052553;28;20049;-73
2022/11/12 00:26:52;;;;;;;11.20;4.38;;;;;;;;;;5052268;28;20060;-73
2022/11/12 00:29:18;;;;;;;11.88;4.47;;;;;;;;;;5052393;28;20056;-73
2022/11/12 00:31:45;;;;;;;10.25;4.03;;;;;;;;;;5052442;28;20049;-73
2022/11/12 00:34:11;;;;;;;6.82;4.10;;;;;;;;;;5052322;28;20049;-72
2022/11/12 00:36:37;;;;;;;6.78;3.60;;;;;;;;;;5052161;28;20069;-73
2022/11/12 00:39:04;;;;;;;7.22;3.80;;;;;;;;;;5052358;28;20449;-73
2022/11/12 00:41:30;;;;;;;10.73;3.90;;;;;;;;;;5052366;28;20055;-73
2022/11/12 00:43:57;;;;;;;8.65;4.30;;;;;;;;;;5052383;28;20051;-73
2022/11/12 00:46:23;;;;;;;6.90;4.40;;;;;;;;;;5052056;28;20052;-73
2022/11/12 00:48:49;;;;;;;7.72;4.20;;;;;;;;;;5051825;28;20051;-72
2022/11/12 00:51:16;;;;;;;7.60;3.75;;;;;;;;;;5052036;28;20056;-73
2022/11/12 00:53:42;;;;;;;7.63;4.07;;;;;;;;;;5052085;28;20041;-72
2022/11/12 00:56:08;;;;;;;8.20;4.25;;;;;;;;;;5052313;28;20052;-73
2022/11/12 00:58:35;;;;;;;8.48;3.90;;;;;;;;;;5051778;28;20083;-72
2022/11/12 01:01:09;;;;;;;8.13;4.03;;;;;;;;;;5051931;28;20049;-72
2022/11/12 01:03:36;;;;;;;6.50;3.90;;;;;;;;;;5052133;28;20059;-73
2022/11/12 01:06:04;;;;;;;9.63;4.53;;;;;;;;;;5051901;28;20053;-73
2022/11/12 01:08:31;;;;;;;8.00;4.10;;;;;;;;;;5051777;28;20052;-73
2022/11/12 01:11:08;;;;;;;6.63;4.05;;;;;;;;;;5052057;28;20467;-73
2022/11/12 01:13:35;;;;;;;7.65;3.78;;;;;;;;;;5051874;28;20044;-73
2022/11/12 01:16:13;;;;;;;7.82;4.28;;;;;;;;;;5051577;28;20076;-73
2022/11/12 01:18:40;;;;;;;9.43;3.90;;;;;;;;;;5052098;28;20136;-73
2022/11/12 01:21:06;;;;;;;9.93;4.72;;;;;;;;;;5051807;28;20063;-73
2022/11/12 01:23:34;;;;;;;9.73;4.68;;;;;;;;;;5051487;28;20392;-73
2022/11/12 01:26:00;;;;;;;;;;;;;;;;;;5052102;28;20053;-73
2022/11/12 01:28:27;;;;;;;7.72;4.70;;;;;;;;;;5051671;28;20273;-73
2022/11/12 01:30:54;;;;;;;6.55;3.97;;;;;;;;;;5051483;28;20493;-73
2022/11/12 01:33:20;;;;;;;10.05;4.60;;;;;;;;;;5051399;28;20407;-73
2022/11/12 01:35:47;;;;;;;6.45;4.07;;;;;;;;;;5051689;28;20064;-73
2022/11/12 01:38:13;;;;;;;8.48;4.10;;;;;;;;;;5037548;28;20049;-73
2022/11/12 01:40:39;;;;;;;8.20;4.05;;;;;;;;;;5051768;28;20059;-73
2022/11/12 01:43:12;;;;;;;8.13;3.90;;;;;;;;;;5051510;28;20065;-73
2022/11/12 01:45:41;;;;;;;8.07;4.05;;;;;;;;;;5051534;28;20045;-73
2022/11/12 01:48:17;;;;;;;7.38;3.90;;;;;;;;;;5051466;28;20170;-72
2022/11/12 01:50:44;;;;;;;8.98;4.35;;;;;;;;;;5051538;28;20045;-72
2022/11/12 01:53:12;;;;;;;9.07;4.18;;;;;;;;;;5051385;28;20049;-72
2022/11/12 01:55:38;;;;;;;7.30;3.90;;;;;;;;;;5051146;28;20049;-72
2022/11/12 01:58:08;;;;;;;9.15;4.25;;;;;;;;;;5051291;28;20415;-72
2022/11/12 02:00:35;;;;;;;6.35;3.55;;;;;;;;;;5050158;28;20575;-73
2022/11/12 02:03:03;;;;;;;6.55;3.38;;;;;;;;;;5046055;28;20049;-71
2022/11/12 02:05:30;;;;;;;7.55;3.38;;;;;;;;;;5050745;28;20496;-71
2022/11/12 02:07:57;;;;;;;6.72;3.67;;;;;;;;;;5051333;28;20044;-71
2022/11/12 02:10:24;;;;;;;7.03;3.65;;;;;;;;;;5047297;28;20056;-72
2022/11/12 02:15:37;;;;;;;8.30;3.47;;;;;;;;;;5055234;28;20071;-73
2022/11/12 02:18:04;;;;;;;7.68;3.85;;;;;;;;;;5054910;28;20053;-73
2022/11/12 02:20:34;;;;;;;7.00;3.75;;;;;;;;;;5054460;28;20055;-73
2022/11/12 02:23:01;;;;;;;8.52;3.60;;;;;;;;;;5054675;28;20056;-73
2022/11/12 02:25:27;;;;;;;8.32;3.55;;;;;;;;;;5054765;28;20055;-73
2022/11/12 02:27:55;;;;;;;9.40;3.47;;;;;;;;;;5055025;28;20048;-73
2022/11/12 02:30:45;;;;;;;4.75;3.40;;;;;;;;;;5054759;28;20047;-72
2022/11/12 02:33:11;;;;;;;10.52;3.53;;;;;;;;;;5054519;28;20128;-73
2022/11/12 02:35:37;;;;;;;6.78;3.67;;;;;;;;;;5054394;28;20044;-72
2022/11/12 02:38:04;;;;;;;7.82;3.70;;;;;;;;;;5054746;28;20404;-72
2022/11/12 02:40:30;;;;;;;6.32;4.07;;;;;;;;;;5054642;28;20058;-73
2022/11/12 02:42:57;;;;;;;6.93;3.63;;;;;;;;;;5054533;28;20059;-73
2022/11/12 02:45:24;;;;;;;4.68;3.70;;;;;;;;;;5054458;28;20133;-73
2022/11/12 02:47:50;;;;;;;9.88;4.07;;;;;;;;;;5054319;28;20056;-73
2022/11/12 02:50:17;;;;;;;6.90;3.60;;;;;;;;;;5054254;28;20408;-73
2022/11/12 02:52:44;;;;;;;7.70;4.10;;;;;;;;;;5054222;28;20045;-73
2022/11/12 02:55:11;;;;;;;7.18;3.80;;;;;;;;;;5052850;28;20293;-73
2022/11/12 02:57:38;;;;;;;9.02;4.25;;;;;;;;;;5054113;28;20045;-73
2022/11/12 03:00:07;;;;;;;10.90;4.25;;;;;;;;;;5054340;28;20063;-73
2022/11/12 03:02:33;;;;;;;9.23;4.30;;;;;;;;;;5054000;28;20056;-73
2022/11/12 03:05:00;;;;;;;8.73;4.88;;;;;;;;;;5054280;28;20049;-73
2022/11/12 03:07:26;;;;;;;6.38;3.97;;;;;;;;;;5054043;28;20049;-73
2022/11/12 03:09:52;;;;;;;8.68;4.15;;;;;;;;;;5053984;28;20037;-73
2022/11/12 03:12:19;;;;;;;5.22;3.60;;;;;;;;;;5054045;28;20065;-73
2022/11/12 03:14:45;;;;;;;5.75;3.83;;;;;;;;;;5054103;28;20423;-73
2022/11/12 03:17:11;;;;;;;6.82;4.15;;;;;;;;;;5053788;28;20068;-73
2022/11/12 03:19:38;;;;;;;8.95;3.80;;;;;;;;;;5052758;28;20056;-73
2022/11/12 03:22:04;;;;;;;10.32;3.65;;;;;;;;;;5053722;28;20053;-73
2022/11/12 03:24:30;;;;;;;8.90;4.18;;;;;;;;;;5053934;28;20051;-73
2022/11/12 03:26:58;;;;;;;5.93;3.78;;;;;;;;;;5053823;28;20041;-73
2022/11/12 03:29:25;;;;;;;9.68;4.22;;;;;;;;;;5052317;28;20400;-73
2022/11/12 03:31:52;;;;;;;9.85;4.00;;;;;;;;;;5053668;28;20041;-73
2022/11/12 03:34:18;;;;;;;6.70;3.88;;;;;;;;;;5053593;28;20388;-73
2022/11/12 03:36:44;;;;;;;7.72;4.38;;;;;;;;;;5053274;28;20481;-73
2022/11/12 03:39:11;;;;;;;6.43;3.83;;;;;;;;;;5052276;28;20060;-73
2022/11/12 03:41:37;;;;;;;7.20;4.05;;;;;;;;;;5053378;28;20053;-73
2022/11/12 03:44:03;;;;;;;10.10;4.20;;;;;;;;;;5053379;28;20497;-73
2022/11/12 03:46:30;;;;;;;10.00;4.38;;;;;;;;;;5052337;28;20053;-73
2022/11/12 03:48:58;;;;;;;9.82;4.75;;;;;;;;;;5052930;28;20048;-73
2022/11/12 03:51:24;;;;;;;6.50;4.40;;;;;;;;;;5053065;28;20580;-73
2022/11/12 03:53:50;;;;;;;5.82;3.65;;;;;;;;;;5052990;28;20518;-73
2022/11/12 03:56:17;;;;;;;7.07;3.88;;;;;;;;;;5053000;28;20056;-73
2022/11/12 03:58:43;;;;;;;9.30;4.60;;;;;;;;;;5053179;28;20048;-73
2022/11/12 04:01:09;;;;;;;8.00;4.50;;;;;;;;;;5052866;28;20049;-73
2022/11/12 04:03:36;;;;;;;8.63;4.45;;;;;;;;;;5053134;28;20063;-73
2022/11/12 04:08:47;;;;;;;12.63;5.57;;;;;;;;;;5052762;28;20049;-73
2022/11/12 04:11:14;;;;;;;8.50;5.32;;;;;;;;;;5052811;28;20052;-74
2022/11/12 04:13:44;;;;;;;6.40;4.60;;;;;;;;;;5053298;28;20404;-74
2022/11/12 04:21:50;;;;;;;10.00;5.13;;;;;;;;;;5052807;28;20049;-72
2022/11/12 04:27:07;;;;;;;6.47;4.88;;;;;;;;;;5052545;28;20155;-73
2022/11/12 04:32:19;;;;;;;10.50;5.35;;;;;;;;;;5052076;28;20481;-73
2022/11/12 04:34:46;;;;;;;11.30;6.18;;;;;;;;;;5051781;28;20059;-73
2022/11/12 04:37:12;;;;;;;10.50;6.22;;;;;;;;;;5052332;28;20049;-72
2022/11/12 04:39:38;;;;;;;9.50;5.32;;;;;;;;;;5052133;28;20527;-73
2022/11/12 04:45:10;;;;;;;10.02;5.70;;;;;;;;;;5052282;28;20059;-73
2022/11/12 04:47:37;;;;;;;9.07;6.38;;;;;;;;;;5052015;28;20388;-73
2022/11/12 04:50:06;;;;;;;9.15;6.38;;;;;;;;;;5052006;28;20526;-73
2022/11/12 04:52:32;;;;;;;9.45;5.38;;;;;;;;;;5024525;28;20128;-73
2022/11/12 04:54:59;;;;;;;11.07;6.32;;;;;;;;;;5052200;28;20056;-73
2022/11/12 04:57:26;;;;;;;9.57;6.32;;;;;;;;;;5051825;28;20048;-73
2022/11/12 04:59:52;;;;;;;9.23;6.50;;;;;;;;;;5051786;28;20045;-73
2022/11/12 05:02:18;;;;;;;17.42;7.35;;;;;;;;;;5051791;28;20049;-73
2022/11/12 05:04:45;;;;;;;8.38;5.93;;;;;;;;;;5050689;28;20071;-73
2022/11/12 05:07:11;;;;;;;10.27;6.18;;;;;;;;;;5051972;28;20055;-73
2022/11/12 05:09:38;;;;;;;11.05;6.47;;;;;;;;;;5051915;28;20041;-73
2022/11/12 05:12:05;;;;;;;10.60;5.95;;;;;;;;;;5051615;28;20059;-73
2022/11/12 05:14:31;;;;;;;8.98;6.40;;;;;;;;;;5051770;28;20056;-73
2022/11/12 05:16:57;;;;;;;12.00;7.03;;;;;;;;;;5051718;28;20045;-73
2022/11/12 05:19:24;;;;;;;10.30;7.07;;;;;;;;;;5051696;28;20059;-73
2022/11/12 05:22:05;;;;;;;7.82;6.43;;;;;;;;;;5037645;28;20048;-73
2022/11/12 05:24:33;;;;;;;8.77;6.07;;;;;;;;;;5050343;28;20151;-73
2022/11/12 05:27:12;;;;;;;12.20;7.25;;;;;;;;;;5051828;28;20096;-73
2022/11/12 05:29:38;;;;;;;8.77;6.57;;;;;;;;;;5051671;28;20040;-73
2022/11/12 05:32:06;;;;;;;10.23;6.90;;;;;;;;;;5051686;28;20041;-73
2022/11/12 05:34:33;;;;;;;12.02;7.00;;;;;;;;;;5051425;28;20492;-72
2022/11/12 05:37:00;;;;;;;9.70;6.40;;;;;;;;;;5051640;28;20369;-73
2022/11/12 05:39:27;;;;;;;9.27;6.55;;;;;;;;;;5051722;28;20049;-73
2022/11/12 05:41:53;;;;;;;10.43;6.70;;;;;;;;;;5051316;28;20051;-73
2022/11/12 05:44:38;;;;;;;9.20;6.78;;;;;;;;;;5051691;28;20057;-73
2022/11/12 05:47:04;;;;;;;9.10;7.15;;;;;;;;;;5055351;28;20045;-73
2022/11/12 05:49:31;;;;;;;9.48;6.32;;;;;;;;;;5055381;28;20049;-73
2022/11/12 05:51:57;;;;;;;10.65;6.60;;;;;;;;;;5055627;28;20051;-73
2022/11/12 05:54:23;;;;;;;10.07;6.55;;;;;;;;;;5055291;28;20064;-73
2022/11/12 05:56:50;;;;;;;13.68;7.35;;;;;;;;;;5055438;28;20064;-73
2022/11/12 05:59:16;;;;;;;11.95;7.13;;;;;;;;;;5054008;28;20489;-73
2022/11/12 06:01:43;;;;;;;9.90;7.25;;;;;;;;;;5055249;28;20052;-73
2022/11/12 06:04:10;;;;;;;10.88;7.15;;;;;;;;;;5055074;28;20040;-73
2022/11/12 06:06:37;;;;;;;14.50;7.53;;;;;;;;;;5055168;28;20053;-73
2022/11/12 06:09:04;;;;;;;13.40;6.93;;;;;;;;;;5055107;28;20048;-73
2022/11/12 06:11:31;;;;;;;11.82;7.75;;;;;;;;;;5054945;28;20481;-72
2022/11/12 06:13:57;;;;;;;10.77;7.88;;;;;;;;;;5055006;28;20045;-74
2022/11/12 06:16:24;;;;;;;8.90;7.95;;;;;;;;;;5055030;28;20481;-73
2022/11/12 06:18:50;;;;;;;13.35;8.20;;;;;;;;;;5055116;28;20051;-73
2022/11/12 06:21:20;;;;;;;12.13;8.52;;;;;;;;;;5054775;28;20135;-73
2022/11/12 06:23:48;;;;;;;15.13;9.02;;;;;;;;;;5054873;28;20587;-73
2022/11/12 06:26:14;;;;;;;10.05;7.90;;;;;;;;;;5054765;28;20497;-72
2022/11/12 06:28:41;;;;;;;9.98;8.02;;;;;;;;;;5054666;28;20056;-73
2022/11/12 06:31:07;;;;;;;13.77;8.30;;;;;;;;;;5054972;28;20040;-73
2022/11/12 06:33:34;;;;;;;12.52;8.55;;;;;;;;;;5054743;28;20045;-74
2022/11/12 06:36:02;;;;;;;10.40;8.45;;;;;;;;;;5054482;28;20136;-74
2022/11/12 06:38:29;;;;;;;11.48;8.50;;;;;;;;;;5054775;28;20061;-74
2022/11/12 06:40:55;;;;;;;11.73;9.30;;;;;;;;;;5054893;28;20045;-74
2022/11/12 06:43:22;;;;;;;11.60;8.85;;;;;;;;;;5054363;28;20288;-74
2022/11/12 06:45:48;;;;;;;14.60;9.65;;;;;;;;;;5054377;28;20052;-74
2022/11/12 06:48:15;;;;;;;11.68;10.27;;;;;;;;;;5054493;28;20056;-74
2022/11/12 06:50:41;;;;;;;13.27;11.13;;;;;;;;;;5053380;28;20040;-74
2022/11/12 06:53:07;;;;;;;16.25;11.30;;;;;;;;;;5054447;28;20056;-74
2022/11/12 06:55:34;;;;;;;14.43;9.82;;;;;;;;;;5054276;28;20044;-74
2022/11/12 06:58:00;;;;;;;12.60;10.48;;;;;;;;;;5054083;28;20049;-73
2022/11/12 07:00:27;;;;;;;12.15;10.35;;;;;;;;;;5054187;28;20048;-73
2022/11/12 07:02:53;;;;;;;14.75;10.90;;;;;;;;;;5053932;28;20123;-73
2022/11/12 07:05:20;;;;;;;15.98;11.30;;;;;;;;;;5054246;28;20048;-73
2022/11/12 07:07:46;;;;;;;15.52;11.57;;;;;;;;;;5053846;28;20056;-73
2022/11/12 07:10:12;;;;;;;14.77;11.57;;;;;;;;;;5053926;28;20408;-73
2022/11/12 07:12:39;;;;;;;14.77;11.60;;;;;;;;;;5054107;28;20576;-73
2022/11/12 07:15:05;;;;;;;18.25;12.00;;;;;;;;;;5052472;28;20057;-73
2022/11/12 07:17:31;;;;;;;16.23;11.90;;;;;;;;;;5054023;28;20045;-74
2022/11/12 07:19:59;;;;;;;14.88;12.15;;;;;;;;;;5053860;28;20056;-73
2022/11/12 07:22:31;;;;;;;16.38;12.57;;;;;;;;;;5054063;28;20424;-73
2022/11/12 07:24:57;;;;;;;16.02;12.40;;;;;;;;;;5053614;28;20049;-73
2022/11/12 07:27:23;;;;;;;15.68;12.45;;;;;;;;;;5053599;28;20390;-73
2022/11/12 07:29:50;;;;;;;16.63;13.38;;;;;;;;;;5053714;28;20045;-73
2022/11/12 07:32:16;;;;;;;14.45;11.90;;;;;;;;;;5053688;28;20051;-73
2022/11/12 07:34:43;;;;;;;13.60;11.70;;;;;;;;;;5053301;28;20059;-73
2022/11/12 07:37:09;;;;;;;16.13;12.90;;;;;;;;;;5053412;28;20506;-73
2022/11/12 07:39:35;;;;;;;16.30;12.73;;;;;;;;;;5052563;28;20132;-73
2022/11/12 07:42:02;;;;;;;17.23;13.52;;;;;;;;;;5053478;28;20059;-73
2022/11/12 07:44:28;;;;;;;16.42;13.13;;;;;;;;;;5053668;28;20051;-73
2022/11/12 07:46:55;;;;;;;14.98;12.85;;;;;;;;;;5053435;28;20052;-73
2022/11/12 07:49:21;;;;;;;15.73;13.63;;;;;;;;;;5053236;28;20045;-73
2022/11/12 07:51:47;;;;;;;15.00;13.38;;;;;;;;;;5053072;28;20049;-73
2022/11/12 07:54:14;;;;;;;14.95;13.00;;;;;;;;;;5053193;28;20055;-73
2022/11/12 07:56:40;;;;;;;15.13;12.45;;;;;;;;;;5053166;28;20055;-71
2022/11/12 07:59:07;;;;;;;16.17;12.48;;;;;;;;;;5053224;28;20053;-72
2022/11/12 08:01:38;;;;;;;16.98;12.52;;;;;;;;;;5053057;28;20049;-75
2022/11/12 08:04:05;;;;;;;17.75;12.90;;;;;;;;;;5053268;28;20052;-74
2022/11/12 08:06:32;;;;;;;14.82;12.68;;;;;;;;;;5053221;28;20103;-73
2022/11/12 08:09:00;;;;;;;17.10;14.30;;;;;;;;;;5031387;28;20085;-73
2022/11/12 08:11:26;;;;;;;15.38;13.25;;;;;;;;;;5043662;28;20076;-73
2022/11/12 08:13:53;;;;;;;17.58;13.65;;;;;;;;;;5046913;28;20045;-73
2022/11/12 08:16:19;;;;;;;18.45;14.15;;;;;;;;;;5032099;28;20071;-74
2022/11/12 08:18:46;;;;;;;16.02;13.27;;;;;;;;;;5031724;28;20609;-74
2022/11/12 08:21:13;;;;;;;17.58;12.88;;;;;;;;;;5031700;28;20052;-73
2022/11/12 08:23:40;;;;;;;16.48;13.23;;;;;;;;;;5031949;28;20052;-73
2022/11/12 08:26:07;;;;;;;15.05;12.48;;;;;;;;;;5031539;28;20124;-72
2022/11/12 08:28:34;;;;;;;17.65;14.27;;;;;;;;;;5031805;28;20041;-72
2022/11/12 08:31:04;;;;;;;16.75;13.23;;;;;;;;;;5034259;28;20064;-73
2022/11/12 08:33:30;;;;;;;14.93;12.35;;;;;;;;;;5050614;28;20160;-72
2022/11/12 08:35:57;;;;;;;15.25;12.45;;;;;;;;;;5051854;28;20049;-72
2022/11/12 08:38:23;;;;;;;15.27;13.23;;;;;;;;;;5051999;28;20053;-72
2022/11/12 08:40:50;;;;;;;17.70;13.20;;;;;;;;;;5052020;28;20060;-72
2022/11/12 08:43:17;;;;;;;14.63;12.20;;;;;;;;;;5051509;28;20057;-72
2022/11/12 08:45:43;;;;;;;13.00;11.50;;;;;;;;;;5044370;28;20051;-68
2022/11/12 08:48:13;;;;;;;12.98;11.68;;;;;;;;;;5029807;28;20059;-68
2022/11/12 08:50:39;;;;;;;15.13;10.70;;;;;;;;;;5049429;28;20062;-69
2022/11/12 08:53:07;;;;;;;12.18;11.00;;;;;;;;;;5050917;28;20052;-70
2022/11/12 08:55:34;;;;;;;12.38;11.02;;;;;;;;;;5051045;28;20045;-70
2022/11/12 08:58:01;;;;;;;11.87;10.53;;;;;;;;;;5051376;28;20068;-70
2022/11/12 09:00:27;;;;;;;14.13;11.17;;;;;;;;;;5035794;28;20052;-72
2022/11/12 09:02:54;;;;;;;13.02;11.60;;;;;;;;;;5029044;28;20440;-71
2022/11/12 09:05:20;;;;;;;14.30;11.60;;;;;;;;;;5031216;28;20049;-72
2022/11/12 09:07:47;;;;;;;14.63;11.50;;;;;;;;;;5043227;28;20049;-69
2022/11/12 09:10:16;;;;;;;17.17;11.32;;;;;;;;;;5051151;28;20048;-75
2022/11/12 09:12:43;;;;;;;13.93;11.93;;;;;;;;;;5037882;28;20042;-73
2022/11/12 09:15:09;;;;;;;13.30;11.77;;;;;;;;;;5029752;28;20059;-74
2022/11/12 09:18:00;;;;;;;12.30;11.00;;;;;;;;;;5049089;28;20516;-73
2022/11/12 09:20:27;;;;;;;15.57;12.55;;;;;;;;;;5036249;28;20132;-72
2022/11/12 09:22:58;;;;;;;13.73;11.32;;;;;;;;;;5050693;28;20055;-71
2022/11/12 09:25:24;;;;;;;14.27;11.05;;;;;;;;;;5031669;28;20045;-71
2022/11/12 09:27:50;;;;;;;13.30;11.45;;;;;;;;;;5030930;28;20045;-68
2022/11/12 09:30:17;;;;;;;13.23;10.60;;;;;;;;;;5035495;28;20123;-71
2022/11/12 09:32:43;;;;;;;12.68;11.23;;;;;;;;;;5039079;28;20056;-72
2022/11/12 09:35:10;;;;;;;12.85;10.60;;;;;;;;;;5041749;28;20057;-72
2022/11/12 09:37:36;;;;;;;9.93;8.90;;;;;;;;;;5040169;28;20049;-72
2022/11/12 09:40:04;;;;;;;9.70;8.90;;;;;;;;;;5043448;28;20477;-72
2022/11/12 09:42:32;;;;;;;9.68;8.80;;;;;;;;;;5051080;28;20056;-75
2022/11/12 09:45:01;;;;;;;8.63;7.63;;;;;;;;;;5049435;28;20216;-73
2022/11/12 09:47:39;;;;;;;8.75;8.05;;;;;;;;;;5051181;28;20131;-72
2022/11/12 09:50:21;;;;;;;8.27;7.57;;;;;;;;;;5050908;28;20056;-73
2022/11/12 09:52:49;;;;;;;8.32;7.13;;;;;;;;;;5050712;28;20137;-72
2022/11/12 09:55:19;;;;;;;8.35;7.25;;;;;;;;;;5050966;28;20053;-73
2022/11/12 09:57:46;;;;;;;7.50;6.88;;;;;;;;;;5051079;28;20040;-72
2022/11/12 10:00:13;;;;;;;7.00;6.23;;;;;;;;;;5050893;28;20468;-73
2022/11/12 10:03:04;;;;;;;6.90;6.20;;;;;;;;;;5033000;28;20054;-71
2022/11/12 10:05:49;;;;;;;6.63;5.97;;;;;;;;;;5050874;28;20044;-72
2022/11/12 10:08:18;;;;;;;9.23;5.88;;;;;;;;;;5046405;28;20064;-72
2022/11/12 10:10:45;;;;;;;7.80;5.85;;;;;;;;;;5041825;28;20484;-70
2022/11/12 10:13:24;;;;;;;6.53;5.60;;;;;;;;;;5031446;28;20045;-70
2022/11/12 10:18:38;;;;;;;5.65;5.15;;;;;;;;;;5050641;28;20048;-70
2022/11/12 10:21:20;;;;;;;5.27;4.87;;;;;;;;;;5050876;28;20053;-70
2022/11/12 10:23:50;;;;;;;5.20;4.75;;;;;;;;;;5032161;28;20282;-70
2022/11/12 10:26:18;;;;;;;5.18;4.78;;;;;;;;;;5030005;28;20057;-70
2022/11/12 10:28:46;;;;;;;5.20;4.70;;;;;;;;;;5048985;28;20513;-71
2022/11/12 10:31:14;;;;;;;6.90;4.25;;;;;;;;;;5033367;28;20057;-71
2022/11/12 10:33:40;;;;;;;6.50;4.20;;;;;;;;;;5041341;28;20053;-72
2022/11/12 10:36:16;;;;;;;4.05;3.65;;;;;;;;;;5028989;28;20545;-72
2022/11/12 10:38:43;;;;;;;5.15;3.60;;;;;;;;;;5040119;28;20045;-72
2022/11/12 10:41:17;;;;;;;4.28;3.65;;;;;;;;;;5036775;28;20045;-71
2022/11/12 10:43:53;;;;;;;6.07;3.40;;;;;;;;;;5054936;28;20055;-71
2022/11/12 10:46:21;;;;;;;4.38;3.63;;;;;;;;;;5054395;28;20045;-72
2022/11/12 10:48:56;;;;;;;5.18;3.60;;;;;;;;;;5053753;28;20045;-72
2022/11/12 10:51:27;;;;;;;4.25;3.22;;;;;;;;;;5054269;28;20045;-72
2022/11/12 10:53:53;;;;;;;3.92;3.30;;;;;;;;;;5038606;28;20060;-72
2022/11/12 10:56:24;;;;;;;3.45;3.15;;;;;;;;;;5033891;28;20057;-71
2022/11/12 10:59:09;;;;;;;3.42;3.00;;;;;;;;;;5034128;28;20045;-72
2022/11/12 11:01:36;;;;;;;4.45;3.35;;;;;;;;;;5042551;28;20052;-72
2022/11/12 11:04:35;;;;;;;3.63;3.05;;;;;;;;;;5054045;28;20057;-72
2022/11/12 11:07:23;;;;;;;5.05;3.20;;;;;;;;;;5053685;28;20049;-72
2022/11/12 11:09:54;;;;;;;3.35;3.00;;;;;;;;;;5052933;28;20075;-71
2022/11/12 11:12:27;;;;;;;4.15;3.28;;;;;;;;;;5044948;28;20064;-71
2022/11/12 11:15:07;;;;;;;4.93;3.15;;;;;;;;;;5047729;28;20045;-71
2022/11/12 11:17:34;;;;;;;3.35;3.00;;;;;;;;;;5053434;28;20047;-71
2022/11/12 11:20:01;;;;;;;2.80;2.60;;;;;;;;;;5053301;28;20059;-71
2022/11/12 11:22:34;;;;;;;3.08;2.78;;;;;;;;;;5052120;28;20053;-71
2022/11/12 11:25:06;;;;;;;5.43;2.80;;;;;;;;;;5053140;28;20090;-72
2022/11/12 11:27:51;;;;;;;3.78;3.00;;;;;;;;;;5047835;28;20052;-71
2022/11/12 11:30:18;;;;;;;3.78;3.08;;;;;;;;;;5050277;28;20046;-71
2022/11/12 11:32:48;;;;;;;4.47;3.05;;;;;;;;;;5053161;28;20132;-72
2022/11/12 11:35:14;;;;;;;4.00;2.80;;;;;;;;;;5052868;28;20053;-72
2022/11/12 11:37:45;;;;;;;4.68;3.17;;;;;;;;;;5053072;28;20044;-71
2022/11/12 11:40:30;;;;;;;3.38;3.08;;;;;;;;;;5052696;28;20051;-72
2022/11/12 11:43:03;;;;;;;2.97;2.65;;;;;;;;;;5052764;28;20123;-71
2022/11/12 11:46:02;;;;;;;4.13;3.08;;;;;;;;;;5052608;28;20051;-71
2022/11/12 11:48:55;;;;;;;5.03;3.05;;;;;;;;;;5046008;28;20053;-70
2022/11/12 11:51:40;;;;;;;4.05;3.00;;;;;;;;;;5048425;28;20457;-70
2022/11/12 11:54:12;;;;;;;4.40;2.70;;;;;;;;;;5053087;28;20492;-70
2022/11/12 11:56:41;;;;;;;5.68;2.70;;;;;;;;;;5053355;28;20041;-70
2022/11/12 11:59:19;;;;;;;5.22;2.80;;;;;;;;;;5053058;28;20499;-70
2022/11/12 12:02:05;;;;;;;3.28;2.30;;;;;;;;;;5051614;28;20076;-70
2022/11/12 12:04:41;;;;;;;3.53;2.42;;;;;;;;;;5053017;28;20049;-73
2022/11/12 12:07:34;;;;;;;2.60;2.40;;;;;;;;;;5049999;28;20057;-73
2022/11/12 12:10:19;;;;;;;4.55;2.50;;;;;;;;;;5038657;28;20053;-72
2022/11/12 12:12:45;;;;;;;4.35;2.35;;;;;;;;;;5047496;28;20060;-69
2022/11/12 12:15:30;;;;;;;3.40;2.08;;;;;;;;;;5031821;28;20048;-69
2022/11/12 12:18:07;;;;;;;4.97;2.80;;;;;;;;;;5031798;28;20416;-69
2022/11/12 12:20:47;;;;;;;3.70;2.40;;;;;;;;;;5044268;28;20053;-69
2022/11/12 12:23:32;;;;;;;2.47;2.08;;;;;;;;;;5027054;28;20053;-69
2022/11/12 12:26:00;;;;;;;3.97;2.60;;;;;;;;;;5050905;28;20056;-68
2022/11/12 12:28:26;;;;;;;4.32;2.13;;;;;;;;;;5038984;28;20049;-68
2022/11/12 12:30:56;;;;;;;4.30;2.03;;;;;;;;;;5050903;28;20048;-69
2022/11/12 12:33:28;;;;;;;5.07;2.28;;;;;;;;;;5052445;28;20535;-69
2022/11/12 12:35:58;;;;;;;3.05;2.03;;;;;;;;;;5051834;28;20412;-68
2022/11/12 12:38:44;;;;;;;4.53;1.90;;;;;;;;;;5051835;28;20037;-68
2022/11/12 12:41:15;;;;;;;5.03;2.30;;;;;;;;;;5052252;28;20063;-71
2022/11/12 12:43:46;;;;;;;3.67;2.13;;;;;;;;;;5052649;28;20056;-71
2022/11/12 12:46:13;;;;;;;5.35;2.17;;;;;;;;;;5043173;28;20489;-70
2022/11/12 12:48:41;;;;;;;2.55;1.90;;;;;;;;;;5032084;28;20071;-69
2022/11/12 12:51:08;;;;;;;4.40;2.03;;;;;;;;;;5032049;28;20049;-67
2022/11/12 12:53:35;;;;;;;5.65;2.30;;;;;;;;;;5031449;28;20042;-71
2022/11/12 12:56:05;;;;;;;4.13;2.20;;;;;;;;;;5030894;28;20049;-69
2022/11/12 12:58:40;;;;;;;3.45;1.92;;;;;;;;;;5024085;28;20044;-68
2022/11/12 13:01:21;;;;;;;3.72;2.10;;;;;;;;;;5052154;28;20055;-69
2022/11/12 13:03:57;;;;;;;4.90;2.13;;;;;;;;;;5051770;28;20129;-68
2022/11/12 13:06:50;;;;;;;3.55;2.22;;;;;;;;;;5051712;28;20496;-68
2022/11/12 13:09:16;;;;;;;5.07;2.28;;;;;;;;;;5051765;28;20053;-70
2022/11/12 13:14:33;;;;;;;3.13;2.10;;;;;;;;;;5031289;28;20048;-68
2022/11/12 13:17:00;;;;;;;4.40;2.25;;;;;;;;;;5031203;28;20046;-68
2022/11/12 13:19:27;;;;;;;4.70;2.20;;;;;;;;;;5031403;28;20511;-68
2022/11/12 13:22:12;;;;;;;3.30;2.17;;;;;;;;;;5049427;28;20056;-68
2022/11/12 13:24:57;;;;;;;5.65;2.33;;;;;;;;;;5051591;28;20053;-69
2022/11/12 13:27:39;;;;;;;5.05;2.20;;;;;;;;;;5051572;28;20048;-69
2022/11/12 13:30:07;;;;;;;4.28;2.53;;;;;;;;;;5044238;28;20061;-71
2022/11/12 13:32:34;;;;;;;3.83;2.95;;;;;;;;;;5031017;28;20050;-71
2022/11/12 13:35:16;;;;;;;4.88;2.63;;;;;;;;;;5031019;28;20063;-69
2022/11/12 13:37:45;;;;;;;3.78;2.70;;;;;;;;;;5031103;28;20041;-69
2022/11/12 13:40:17;;;;;;;5.82;3.05;;;;;;;;;;5031118;28;20397;-68
2022/11/12 13:42:49;;;;;;;4.47;2.53;;;;;;;;;;5031236;28;20052;-69
2022/11/12 13:45:17;;;;;;;4.30;2.20;;;;;;;;;;5031072;28;20049;-68
2022/11/12 13:47:43;;;;;;;5.57;2.60;;;;;;;;;;5031371;28;20087;-68
2022/11/12 13:50:13;;;;;;;3.70;1.80;;;;;;;;;;5032020;28;20060;-68
2022/11/12 13:52:40;;;;;;;4.30;2.20;;;;;;;;;;5040554;28;20511;-68
2022/11/12 13:55:12;;;;;;;4.18;2.03;;;;;;;;;;5031278;28;20376;-69
2022/11/12 13:57:38;;;;;;;4.15;2.13;;;;;;;;;;5049328;28;20041;-69
2022/11/12 14:00:20;;;;;;;3.63;2.08;;;;;;;;;;5052040;28;20408;-72
2022/11/12 14:02:57;;;;;;;3.60;1.98;;;;;;;;;;5050330;28;20049;-70
2022/11/12 14:05:25;;;;;;;3.78;1.83;;;;;;;;;;5051220;28;20045;-67
2022/11/12 14:08:10;;;;;;;6.05;1.83;;;;;;;;;;5054954;28;20481;-69
2022/11/12 14:10:36;;;;;;;3.40;2.00;;;;;;;;;;5055277;28;20053;-69
2022/11/12 14:13:36;;;;;;;3.17;1.73;;;;;;;;;;5055440;28;20040;-69
2022/11/12 14:16:09;;;;;;;4.38;1.90;;;;;;;;;;5027385;28;20049;-69
2022/11/12 14:18:43;;;;;;;3.35;2.05;;;;;;;;;;5047223;28;20051;-69
2022/11/12 14:21:14;;;;;;;5.70;1.60;;;;;;;;;;5050501;28;20080;-69
2022/11/12 14:23:44;;;;;;;4.03;1.92;;;;;;;;;;5055322;28;20498;-69
2022/11/12 14:26:11;;;;;;;3.75;1.60;;;;;;;;;;5054938;28;20135;-69
2022/11/12 14:28:38;;;;;;;4.03;1.95;;;;;;;;;;5055116;28;20063;-69
2022/11/12 14:34:26;;;;;;;4.43;1.48;;;;;;;;;;4693027;28;20538;-69
2022/11/12 14:40:22;;;;;;;3.83;2.03;;;;;;;;;;5055190;28;20103;-68
2022/11/12 14:49:53;;;;;;;4.68;1.80;;;;;;;;;;5054744;28;20049;-68
2022/11/12 14:52:28;;;;;;;3.08;1.50;;;;;;;;;;5054458;28;20049;-68
2022/11/12 14:54:58;;;;;;;4.55;2.38;;;;;;;;;;5054386;28;20047;-68
2022/11/12 14:57:29;;;;;;;4.90;1.85;;;;;;;;;;5054444;28;20049;-68
2022/11/12 14:59:56;;;;;;;4.65;2.40;;;;;;;;;;5054448;28;20061;-68
2022/11/12 15:02:27;;;;;;;7.00;2.38;;;;;;;;;;5054413;28;20049;-70
2022/11/12 15:05:15;;;;;;;4.85;2.40;;;;;;;;;;5054508;28;20048;-70
2022/11/12 15:08:04;;;;;;;5.10;2.47;;;;;;;;;;5054052;28;20049;-70
2022/11/12 15:10:31;;;;;;;5.18;2.30;;;;;;;;;;5054218;28;20075;-70
2022/11/12 15:13:16;;;;;;;5.68;2.35;;;;;;;;;;5054095;28;20059;-70
2022/11/12 15:15:51;;;;;;;5.50;2.80;;;;;;;;;;5054046;28;20049;-70
2022/11/12 15:18:25;;;;;;;4.22;2.45;;;;;;;;;;5043733;28;20065;-70
2022/11/12 15:21:10;;;;;;;4.72;2.08;;;;;;;;;;5049987;28;20686;-69
2022/11/12 15:23:45;;;;;;;5.95;2.25;;;;;;;;;;5053993;28;20056;-70
2022/11/12 15:26:13;;;;;;;4.88;2.22;;;;;;;;;;5053549;28;20052;-70
2022/11/12 15:28:39;;;;;;;6.18;2.22;;;;;;;;;;5052620;28;20048;-70